首页
METAR-TAF:

METAR-TAF

机场 :

Songkhla, 泰国

纬度: 07-12N, 经度: 100-36E, 海拔: 4米

当前天气观测

该预报发布于6小时和15分钟前的11:00 UTC
风速12节,风向
温度 26°C
湿度 94%
气压 1009 hPa
能見度: 2000
少量云层高于1600英尺, 积雨云.
散云层高于1800英尺
散云层高于2800英尺
多云层高于9000英尺
雨, 轻雾

METAR: VTSH 121100Z 09012KT 2000 RA BR FEW016CB SCT018 SCT028 BKN090 26/25 Q1009 NOSIG

时间: 00:15 (17:15 UTC)

预报

该预报发布于6小时和15分钟前的11:00 UTC
预报有效从12日的 12点(UTC)到 13日的 12点(UTC)
风速5节,风向
能见度10公里或以上
散云层高于2000英尺
多云层高于10000英尺
短暂存在
从 12日的 12点(UTC)到 12日的 18点(UTC)
能見度: 5000
散云层高于1500英尺
多云层高于10000英尺
短暂存在
从 13日的 00点(UTC)到 13日的 06点(UTC)
能見度: 5000
散云层高于1500英尺
多云层高于10000英尺
短暂存在
从 13日的 06点(UTC)到 13日的 12点(UTC)
能見度: 5000
散云层高于1500英尺
多云层高于10000英尺

TAF: VTSH 121100Z 1212/1312 09005KT 9999 SCT020 BKN100 TEMPO 1212/1218 5000 RA SCT015 BKN100 TEMPO 1300/1306 5000 RA SCT015 BKN100 TEMPO 1306/1312 5000 RA SCT015 BKN100

超过4000个机场的气象观测和天气预报(METAR&TAF报告)。

可查询的气象台以黄色和红色小点在地图上表示。

将鼠标移到小点上方,可查看气象台名称。

然后点击查看天气观测和预报。

如需切换地图:点击带黑十字的绿色按钮放大地图;点击带横线的绿色按钮缩小地图;或者点击绿色箭头查看邻近地区的地图。


METAR-TAF: